createdAt,value
2022-09-20T00:02:02.064Z,4.13
2022-09-20T00:04:29.982Z,4.22
2022-09-20T00:06:57.727Z,4.38
2022-09-20T00:09:25.487Z,3.85
2022-09-20T00:11:54.760Z,3.97
2022-09-20T00:14:22.506Z,4.30
2022-09-20T00:16:50.377Z,4.45
2022-09-20T00:19:19.819Z,4.13
2022-09-20T00:21:47.524Z,4.70
2022-09-20T00:24:15.772Z,4.35
2022-09-20T00:26:43.485Z,4.22
2022-09-20T00:29:13.755Z,4.38
2022-09-20T00:31:42.811Z,4.22
2022-09-20T00:34:29.576Z,4.07
2022-09-20T00:36:57.283Z,4.63
2022-09-20T00:39:25.166Z,4.40
2022-09-20T00:41:52.942Z,4.60
2022-09-20T00:44:49.097Z,4.73
2022-09-20T00:47:23.344Z,4.63
2022-09-20T00:49:53.414Z,4.63
2022-09-20T00:52:21.572Z,4.20
2022-09-20T00:54:49.902Z,4.10
2022-09-20T00:57:17.994Z,4.78
2022-09-20T00:59:48.812Z,5.15
2022-09-20T01:02:18.623Z,5.03
2022-09-20T01:04:47.443Z,5.10
2022-09-20T01:07:17.761Z,4.80
2022-09-20T01:09:45.552Z,4.88
2022-09-20T01:12:15.968Z,5.28
2022-09-20T01:14:44.641Z,5.25
2022-09-20T01:17:14.223Z,5.18
2022-09-20T01:19:50.248Z,5.05
2022-09-20T01:22:23.693Z,5.25
2022-09-20T01:24:56.421Z,5.00
2022-09-20T01:27:37.628Z,5.20
2022-09-20T01:30:08.071Z,5.28
2022-09-20T01:32:45.715Z,4.97
2022-09-20T01:35:14.285Z,5.38
2022-09-20T01:37:51.093Z,5.50
2022-09-20T01:40:24.727Z,5.35
2022-09-20T01:43:01.732Z,5.55
2022-09-20T01:45:30.796Z,5.53
2022-09-20T01:48:09.254Z,5.43
2022-09-20T01:50:44.174Z,5.80
2022-09-20T01:53:41.431Z,5.70
2022-09-20T01:56:41.236Z,5.45
2022-09-20T01:59:36.545Z,5.77
2022-09-20T02:02:31.954Z,6.05
2022-09-20T02:05:24.356Z,6.13
2022-09-20T02:08:06.856Z,5.82
2022-09-20T02:11:01.756Z,5.75
2022-09-20T02:13:31.739Z,6.30
2022-09-20T02:16:17.377Z,5.70
2022-09-20T02:18:57.874Z,5.80
2022-09-20T02:21:31.600Z,5.78
2022-09-20T02:24:06.004Z,5.80
2022-09-20T02:26:40.405Z,5.88
2022-09-20T02:29:18.373Z,5.53
2022-09-20T02:31:59.521Z,5.85
2022-09-20T02:34:47.857Z,5.93
2022-09-20T02:37:30.657Z,5.43
2022-09-20T02:40:07.383Z,5.80
2022-09-20T02:42:38.830Z,5.32
2022-09-20T02:45:11.004Z,5.72
2022-09-20T02:47:41.607Z,5.97
2022-09-20T02:50:20.984Z,5.93
2022-09-20T02:52:57.939Z,6.20
2022-09-20T02:55:35.902Z,5.63
2022-09-20T02:58:18.890Z,6.00
2022-09-20T03:00:53.930Z,5.97
2022-09-20T03:03:31.990Z,5.88
2022-09-20T03:06:07.260Z,5.95
2022-09-20T03:08:39.989Z,5.95
2022-09-20T03:11:14.505Z,6.35
2022-09-20T03:14:05.371Z,6.53
2022-09-20T03:16:36.934Z,6.53
2022-09-20T03:19:16.694Z,6.07
2022-09-20T03:21:53.285Z,5.93
2022-09-20T03:24:30.058Z,6.10
2022-09-20T03:27:00.670Z,6.13
2022-09-20T03:29:39.186Z,6.10
2022-09-20T03:32:21.695Z,6.80
2022-09-20T03:34:58.472Z,7.20
2022-09-20T03:37:42.409Z,6.97
2022-09-20T03:40:30.481Z,6.45
2022-09-20T03:43:04.056Z,6.78
2022-09-20T03:45:42.253Z,7.63
2022-09-20T03:48:24.887Z,7.60
2022-09-20T03:51:10.941Z,8.82
2022-09-20T03:53:59.957Z,8.45
2022-09-20T03:56:59.050Z,7.75
2022-09-20T03:59:37.641Z,7.93
2022-09-20T04:02:19.265Z,7.93
2022-09-20T04:04:52.091Z,8.30
2022-09-20T04:07:25.217Z,7.87
2022-09-20T04:10:03.203Z,7.83
2022-09-20T04:12:36.758Z,8.38
2022-09-20T04:15:17.548Z,9.00
2022-09-20T04:17:50.734Z,8.30
2022-09-20T04:20:21.898Z,9.00
2022-09-20T04:22:52.817Z,8.35
2022-09-20T04:25:23.684Z,8.60
2022-09-20T04:27:54.532Z,8.68
2022-09-20T04:30:27.858Z,9.52
2022-09-20T04:33:00.629Z,9.75
2022-09-20T04:35:54.890Z,9.93
2022-09-20T04:38:24.887Z,9.45
2022-09-20T04:41:30.728Z,9.70
2022-09-20T04:44:19.997Z,9.57
2022-09-20T04:47:23.185Z,9.35
2022-09-20T04:50:32.590Z,9.93
2022-09-20T04:53:24.716Z,9.70
2022-09-20T04:55:56.934Z,9.48
2022-09-20T04:58:36.950Z,9.20
2022-09-20T05:01:40.698Z,9.32
2022-09-20T05:04:41.188Z,9.50
2022-09-20T05:07:36.641Z,8.73
2022-09-20T05:10:19.161Z,9.45
2022-09-20T05:13:09.068Z,9.38
2022-09-20T05:15:43.389Z,9.20
2022-09-20T05:18:48.404Z,9.00
2022-09-20T05:21:38.769Z,9.20
2022-09-20T05:24:13.307Z,8.90
2022-09-20T05:26:52.849Z,8.68
2022-09-20T05:29:25.832Z,9.30
2022-09-20T05:32:00.415Z,9.02
2022-09-20T05:34:33.224Z,10.85
2022-09-20T05:37:07.955Z,8.90
2022-09-20T05:39:39.480Z,8.70
2022-09-20T05:42:19.348Z,9.40
2022-09-20T05:44:57.006Z,9.63
2022-09-20T05:47:36.615Z,9.40
2022-09-20T05:50:18.044Z,9.43
2022-09-20T05:52:52.858Z,9.73
2022-09-20T05:55:43.574Z,10.18
2022-09-20T05:58:26.928Z,9.57
2022-09-20T06:00:59.250Z,9.80
2022-09-20T06:03:35.181Z,9.75
2022-09-20T06:06:08.351Z,10.33
2022-09-20T06:08:58.027Z,9.40
2022-09-20T06:11:59.808Z,10.52
2022-09-20T06:14:40.335Z,9.73
2022-09-20T06:17:17.375Z,9.77
2022-09-20T06:19:47.787Z,9.20
2022-09-20T06:22:19.208Z,9.60
2022-09-20T06:24:49.469Z,9.63
2022-09-20T06:27:22.001Z,9.70
2022-09-20T06:29:54.429Z,14.50
2022-09-20T06:32:22.292Z,9.98
2022-09-20T06:34:50.113Z,28.95
2022-09-20T06:37:49.190Z,9.77
2022-09-20T06:40:50.661Z,9.60
2022-09-20T06:43:19.358Z,9.60
2022-09-20T06:45:48.628Z,9.77
2022-09-20T06:48:16.427Z,9.32
2022-09-20T06:50:45.391Z,9.75
2022-09-20T06:53:17.592Z,8.85
2022-09-20T06:55:46.109Z,8.57
2022-09-20T06:58:13.816Z,8.88
2022-09-20T07:00:41.600Z,8.83
2022-09-20T07:03:12.624Z,8.85
2022-09-20T07:05:40.684Z,8.63
2022-09-20T07:08:08.429Z,8.40
2022-09-20T07:10:36.531Z,8.60
2022-09-20T07:13:04.247Z,7.85
2022-09-20T07:15:33.479Z,8.25
2022-09-20T07:18:01.295Z,8.57
2022-09-20T07:20:30.412Z,8.30
2022-09-20T07:22:58.322Z,7.95
2022-09-20T07:25:26.077Z,7.72
2022-09-20T07:27:54.109Z,7.85
2022-09-20T07:30:21.944Z,7.15
2022-09-20T07:32:50.302Z,6.85
2022-09-20T07:35:18.209Z,6.20
2022-09-20T07:37:47.883Z,6.07
2022-09-20T07:40:16.485Z,5.88
2022-09-20T07:42:45.977Z,5.57
2022-09-20T07:45:13.712Z,4.95
2022-09-20T07:47:42.111Z,5.20
2022-09-20T07:50:11.650Z,4.65
2022-09-20T07:52:39.445Z,4.25
2022-09-20T07:55:09.676Z,3.13
2022-09-20T07:57:38.311Z,3.40
2022-09-20T08:00:07.976Z,3.28
2022-09-20T08:02:40.271Z,3.00
2022-09-20T08:05:08.718Z,3.00
2022-09-20T08:07:36.500Z,2.72
2022-09-20T08:10:04.820Z,3.07
2022-09-20T08:15:22.771Z,2.70
2022-09-20T08:17:50.599Z,2.72
2022-09-20T08:20:19.671Z,3.08
2022-09-20T08:23:06.408Z,2.67
2022-09-20T08:25:35.989Z,2.65
2022-09-20T08:28:05.584Z,12.00
2022-09-20T08:30:33.556Z,4.40
2022-09-20T08:33:02.196Z,2.63
2022-09-20T08:35:30.604Z,2.33
2022-09-20T08:39:57.083Z,2.80
2022-09-20T08:40:47.253Z,2.60
2022-09-20T08:43:22.302Z,2.88
2022-09-20T08:45:50.817Z,2.70
2022-09-20T08:48:18.977Z,2.67
2022-09-20T08:50:46.664Z,3.28
2022-09-20T08:53:20.978Z,3.10
2022-09-20T08:55:49.657Z,2.85
2022-09-20T08:58:19.353Z,2.83
2022-09-20T09:00:47.834Z,2.72
2022-09-20T09:03:17.907Z,3.00
2022-09-20T09:05:47.589Z,2.70
2022-09-20T09:08:17.090Z,2.93
2022-09-20T09:10:47.200Z,2.92
2022-09-20T09:13:21.830Z,3.47
2022-09-20T09:15:54.076Z,2.97
2022-09-20T09:18:21.803Z,4.40
2022-09-20T09:20:49.628Z,2.95
2022-09-20T09:23:25.185Z,3.78
2022-09-20T09:25:53.896Z,2.70
2022-09-20T09:28:24.965Z,2.88
2022-09-20T09:30:52.710Z,2.47
2022-09-20T09:33:26.602Z,2.40
2022-09-20T09:36:00.159Z,1.80
2022-09-20T09:38:30.565Z,1.80
2022-09-20T09:41:00.033Z,1.93
2022-09-20T09:43:32.338Z,1.85
2022-09-20T09:46:19.031Z,1.90
2022-09-20T09:48:50.115Z,1.70
2022-09-20T09:51:20.152Z,2.20
2022-09-20T09:53:49.641Z,2.70
2022-09-20T09:56:27.020Z,2.60
2022-09-20T09:59:10.550Z,2.80
2022-09-20T10:01:49.007Z,9.23
2022-09-20T10:04:19.805Z,4.25
2022-09-20T10:06:52.433Z,2.60
2022-09-20T10:09:30.301Z,2.30
2022-09-20T10:12:17.636Z,2.30
2022-09-20T10:15:01.282Z,1.70
2022-09-20T10:17:46.521Z,1.90
2022-09-20T10:20:31.089Z,1.87
2022-09-20T10:23:39.378Z,1.98
2022-09-20T10:26:00.783Z,2.00
2022-09-20T10:28:48.294Z,1.90
2022-09-20T10:31:31.127Z,2.03
2022-09-20T10:34:10.710Z,2.05
2022-09-20T10:36:44.415Z,2.00
2022-09-20T10:39:15.058Z,1.60
2022-09-20T10:42:06.857Z,1.83
2022-09-20T10:44:54.142Z,1.67
2022-09-20T10:47:28.806Z,1.70
2022-09-20T10:50:01.694Z,1.60
2022-09-20T10:52:38.472Z,1.60
2022-09-20T10:55:28.101Z,1.63
2022-09-20T10:58:19.083Z,1.55
2022-09-20T11:00:52.714Z,1.58
2022-09-20T11:03:32.901Z,1.58
2022-09-20T11:06:10.835Z,1.60
2022-09-20T11:08:39.254Z,1.60
2022-09-20T11:11:10.360Z,1.52
2022-09-20T11:13:42.017Z,1.70
2022-09-20T11:16:14.679Z,1.48
2022-09-20T11:18:47.644Z,1.50
2022-09-20T11:21:20.050Z,1.65
2022-09-20T11:23:52.626Z,1.80
2022-09-20T11:26:26.698Z,2.20
2022-09-20T11:28:56.151Z,2.58
2022-09-20T11:31:27.345Z,1.40
2022-09-20T11:33:59.839Z,1.98
2022-09-20T11:36:33.299Z,1.33
2022-09-20T11:39:05.165Z,10.48
2022-09-20T11:41:33.373Z,1.67
2022-09-20T11:44:06.911Z,1.55
2022-09-20T11:46:36.967Z,1.65
2022-09-20T11:49:12.434Z,3.00
2022-09-20T11:52:21.852Z,4.40
2022-09-20T11:55:11.989Z,1.27
2022-09-20T11:57:40.120Z,1.30
2022-09-20T12:00:10.142Z,3.58
2022-09-20T12:02:46.197Z,2.33
2022-09-20T12:05:28.264Z,1.40
2022-09-20T12:07:57.493Z,1.50
2022-09-20T12:10:27.566Z,2.22
2022-09-20T12:12:58.464Z,1.93
2022-09-20T12:15:28.653Z,1.40
2022-09-20T12:18:37.857Z,1.13
2022-09-20T12:21:16.357Z,1.33
2022-09-20T12:24:23.565Z,1.75
2022-09-20T12:26:55.832Z,1.10
2022-09-20T12:30:15.001Z,1.27
2022-09-20T12:32:48.420Z,1.25
2022-09-20T12:35:55.847Z,1.33
2022-09-20T12:38:31.219Z,1.10
2022-09-20T12:41:03.871Z,1.27
2022-09-20T12:43:33.230Z,1.30
2022-09-20T12:46:06.333Z,1.42
2022-09-20T12:48:38.406Z,1.20
2022-09-20T12:51:21.585Z,1.20
2022-09-20T12:54:08.066Z,4.30
2022-09-20T12:56:37.543Z,1.02
2022-09-20T12:59:07.391Z,1.40
2022-09-20T13:01:40.441Z,1.00
2022-09-20T13:04:55.212Z,1.02
2022-09-20T13:07:43.781Z,0.90
2022-09-20T13:10:29.095Z,0.83
2022-09-20T13:13:01.203Z,1.13
2022-09-20T13:15:29.123Z,4.10
2022-09-20T13:17:59.064Z,1.85
2022-09-20T13:20:29.900Z,1.08
2022-09-20T13:23:00.285Z,1.25
2022-09-20T13:25:29.822Z,1.35
2022-09-20T13:28:04.207Z,1.20
2022-09-20T13:30:32.863Z,1.10
2022-09-20T13:33:17.305Z,1.50
2022-09-20T13:35:47.012Z,1.25
2022-09-20T13:38:16.051Z,1.40
2022-09-20T13:40:47.433Z,1.30
2022-09-20T13:43:25.280Z,1.45
2022-09-20T13:45:55.040Z,1.20
2022-09-20T13:48:25.593Z,1.23
2022-09-20T13:50:53.938Z,1.02
2022-09-20T13:53:40.066Z,1.33
2022-09-20T13:56:11.767Z,1.30
2022-09-20T13:58:39.613Z,1.10
2022-09-20T14:01:09.483Z,1.10
2022-09-20T14:03:37.538Z,1.20
2022-09-20T14:06:08.401Z,1.40
2022-09-20T14:08:38.991Z,1.20
2022-09-20T14:11:08.554Z,1.50
2022-09-20T14:13:40.097Z,1.23
2022-09-20T14:16:08.267Z,1.20
2022-09-20T14:18:36.545Z,1.00
2022-09-20T14:21:06.861Z,1.20
2022-09-20T14:23:34.707Z,1.40
2022-09-20T14:26:10.243Z,1.27
2022-09-20T14:28:39.345Z,1.17
2022-09-20T14:31:08.861Z,1.30
2022-09-20T14:33:42.127Z,1.10
2022-09-20T14:36:14.551Z,1.23
2022-09-20T14:38:44.464Z,1.42
2022-09-20T14:41:12.768Z,1.20
2022-09-20T14:43:42.232Z,1.58
2022-09-20T14:46:18.642Z,1.10
2022-09-20T14:48:46.466Z,2.15
2022-09-20T14:51:25.420Z,1.38
2022-09-20T14:53:55.071Z,1.40
2022-09-20T14:56:34.698Z,1.40
2022-09-20T14:59:19.757Z,1.33
2022-09-20T15:01:57.068Z,2.08
2022-09-20T15:04:26.852Z,1.33
2022-09-20T15:06:55.316Z,1.58
2022-09-20T15:09:23.799Z,2.17
2022-09-20T15:12:07.299Z,1.10
2022-09-20T15:14:38.075Z,1.20
2022-09-20T15:17:06.288Z,1.33
2022-09-20T15:19:34.460Z,0.90
2022-09-20T15:22:02.272Z,1.10
2022-09-20T15:24:29.999Z,1.42
2022-09-20T15:26:57.900Z,1.17
2022-09-20T15:29:26.014Z,1.27
2022-09-20T15:31:55.236Z,1.73
2022-09-20T15:34:23.165Z,2.70
2022-09-20T15:36:51.640Z,2.08
2022-09-20T15:39:21.008Z,1.55
2022-09-20T15:41:49.433Z,1.50
2022-09-20T15:44:17.727Z,1.20
2022-09-20T15:46:45.493Z,1.40
2022-09-20T15:49:14.564Z,1.50
2022-09-20T15:51:42.303Z,1.42
2022-09-20T15:54:15.837Z,1.30
2022-09-20T15:56:43.603Z,1.50
2022-09-20T15:59:13.334Z,1.27
2022-09-20T16:01:42.310Z,1.42
2022-09-20T16:04:11.110Z,1.40
2022-09-20T16:06:41.330Z,1.27
2022-09-20T16:09:09.497Z,1.37
2022-09-20T16:11:38.694Z,1.35
2022-09-20T16:14:06.832Z,1.88
2022-09-20T16:16:39.929Z,1.60
2022-09-20T16:19:23.625Z,1.30
2022-09-20T16:21:59.118Z,1.20
2022-09-20T16:24:28.586Z,1.20
2022-09-20T16:26:56.655Z,1.55
2022-09-20T16:29:25.775Z,1.40
2022-09-20T16:31:54.628Z,1.27
2022-09-20T16:34:23.901Z,1.40
2022-09-20T16:36:55.614Z,1.83
2022-09-20T16:39:26.151Z,1.30
2022-09-20T16:41:53.951Z,1.38
2022-09-20T16:44:21.653Z,1.38
2022-09-20T16:46:49.464Z,1.33
2022-09-20T16:49:17.648Z,1.27
2022-09-20T16:51:46.286Z,1.20
2022-09-20T16:54:17.102Z,1.55
2022-09-20T16:56:46.602Z,1.25
2022-09-20T16:59:15.596Z,1.43
2022-09-20T17:01:44.348Z,1.33
2022-09-20T17:04:13.984Z,1.20
2022-09-20T17:06:43.198Z,1.30
2022-09-20T17:09:11.461Z,1.40
2022-09-20T17:11:43.622Z,1.10
2022-09-20T17:14:11.390Z,1.27
2022-09-20T17:16:40.777Z,1.30
2022-09-20T17:19:10.975Z,1.60
2022-09-20T17:21:42.359Z,1.52
2022-09-20T17:24:10.450Z,1.67
2022-09-20T17:26:40.855Z,1.67
2022-09-20T17:29:10.650Z,1.40
2022-09-20T17:31:41.630Z,1.58
2022-09-20T17:34:10.960Z,1.67
2022-09-20T17:36:40.428Z,1.53
2022-09-20T17:39:09.981Z,1.88
2022-09-20T17:41:38.364Z,1.80
2022-09-20T17:44:08.269Z,2.47
2022-09-20T17:46:38.035Z,2.03
2022-09-20T17:49:07.594Z,2.10
2022-09-20T17:51:38.197Z,1.70
2022-09-20T17:54:06.209Z,2.00
2022-09-20T17:56:35.652Z,2.28
2022-09-20T17:59:04.862Z,2.70
2022-09-20T18:01:35.522Z,2.72
2022-09-20T18:04:04.490Z,3.35
2022-09-20T18:06:34.277Z,2.80
2022-09-20T18:09:04.534Z,3.10
2022-09-20T18:11:33.802Z,3.60
2022-09-20T18:14:02.053Z,4.20
2022-09-20T18:16:30.867Z,5.30
2022-09-20T18:19:00.248Z,5.47
2022-09-20T18:21:30.052Z,4.70
2022-09-20T18:23:58.977Z,6.00
2022-09-20T18:26:29.995Z,6.10
2022-09-20T18:29:00.201Z,6.10
2022-09-20T18:31:32.367Z,6.95
2022-09-20T18:34:01.946Z,7.15
2022-09-20T18:36:30.907Z,6.43
2022-09-20T18:38:59.500Z,5.25
2022-09-20T18:41:29.046Z,5.45
2022-09-20T18:43:57.135Z,5.78
2022-09-20T18:46:26.858Z,6.07
2022-09-20T18:48:55.827Z,6.18
2022-09-20T18:51:25.925Z,6.53
2022-09-20T18:53:53.861Z,5.70
2022-09-20T18:56:24.043Z,5.18
2022-09-20T18:58:52.848Z,5.50
2022-09-20T19:01:42.693Z,5.00
2022-09-20T19:04:24.362Z,5.20
2022-09-20T19:06:59.101Z,4.93
2022-09-20T19:09:32.528Z,5.63
2022-09-20T19:12:02.783Z,5.53
2022-09-20T19:14:48.317Z,5.72
2022-09-20T19:17:20.278Z,5.90
2022-09-20T19:19:51.588Z,5.03
2022-09-20T19:22:29.629Z,4.55
2022-09-20T19:25:12.409Z,5.32
2022-09-20T19:27:41.208Z,5.28
2022-09-20T19:30:13.101Z,5.25
2022-09-20T19:32:41.322Z,5.50
2022-09-20T19:35:17.234Z,5.75
2022-09-20T19:37:58.079Z,6.40
2022-09-20T19:40:31.238Z,6.47
2022-09-20T19:43:14.420Z,6.07
2022-09-20T19:45:49.550Z,5.90
2022-09-20T19:48:20.401Z,6.30
2022-09-20T19:50:52.138Z,7.20
2022-09-20T19:53:24.117Z,6.70
2022-09-20T19:55:55.173Z,7.35
2022-09-20T19:58:23.770Z,8.70
2022-09-20T20:00:52.579Z,7.40
2022-09-20T20:03:23.512Z,7.30
2022-09-20T20:05:56.092Z,7.45
2022-09-20T20:08:32.849Z,7.15
2022-09-20T20:11:06.175Z,7.20
2022-09-20T20:13:54.667Z,7.80
2022-09-20T20:16:28.169Z,8.10
2022-09-20T20:19:07.045Z,7.15
2022-09-20T20:21:41.190Z,7.82
2022-09-20T20:24:20.555Z,8.35
2022-09-20T20:26:48.281Z,8.40
2022-09-20T20:29:16.013Z,8.32
2022-09-20T20:31:43.790Z,7.38
2022-09-20T20:34:16.012Z,7.57
2022-09-20T20:36:44.294Z,7.53
2022-09-20T20:39:13.368Z,7.20
2022-09-20T20:41:41.536Z,7.30
2022-09-20T20:44:09.712Z,7.20
2022-09-20T20:46:38.060Z,7.53
2022-09-20T20:49:06.029Z,8.50
2022-09-20T20:51:33.860Z,8.45
2022-09-20T20:54:01.598Z,8.13
2022-09-20T20:56:31.282Z,7.18
2022-09-20T20:59:00.610Z,7.20
2022-09-20T21:01:30.508Z,9.65
2022-09-20T21:03:59.566Z,7.53
2022-09-20T21:06:28.599Z,7.95
2022-09-20T21:08:56.661Z,6.90
2022-09-20T21:11:25.957Z,7.22
2022-09-20T21:13:57.073Z,7.07
2022-09-20T21:16:26.163Z,6.35
2022-09-20T21:18:54.008Z,7.80
2022-09-20T21:21:23.472Z,10.00
2022-09-20T21:23:52.787Z,7.18
2022-09-20T21:26:21.278Z,7.88
2022-09-20T21:28:52.070Z,7.70
2022-09-20T21:31:23.095Z,7.32
2022-09-20T21:33:51.088Z,8.07
2022-09-20T21:36:20.407Z,7.78
2022-09-20T21:38:48.292Z,8.23
2022-09-20T21:41:17.649Z,7.50
2022-09-20T21:43:46.383Z,7.18
2022-09-20T21:46:14.882Z,7.53
2022-09-20T21:48:44.184Z,7.70
2022-09-20T21:51:13.741Z,7.68
2022-09-20T21:53:42.249Z,8.32
2022-09-20T21:56:11.401Z,7.40
2022-09-20T21:58:39.983Z,7.90
2022-09-20T22:01:11.556Z,8.23
2022-09-20T22:03:40.784Z,7.85
2022-09-20T22:06:12.049Z,7.60
2022-09-20T22:08:41.352Z,7.88
2022-09-20T22:11:14.901Z,7.90
2022-09-20T22:13:43.536Z,7.50
2022-09-20T22:16:12.856Z,7.75
2022-09-20T22:18:42.022Z,7.72
2022-09-20T22:21:13.018Z,6.93
2022-09-20T22:23:41.005Z,7.13
2022-09-20T22:26:10.479Z,7.00
2022-09-20T22:28:38.725Z,6.85
2022-09-20T22:31:08.473Z,7.18
2022-09-20T22:33:36.904Z,7.33
2022-09-20T22:36:08.268Z,7.05
2022-09-20T22:38:37.483Z,6.97
2022-09-20T22:41:06.088Z,7.70
2022-09-20T22:43:34.363Z,7.88
2022-09-20T22:46:06.089Z,7.60
2022-09-20T22:48:34.512Z,8.70
2022-09-20T22:51:02.676Z,8.40
2022-09-20T22:53:31.365Z,7.63
2022-09-20T22:56:08.480Z,8.38
2022-09-20T22:58:37.570Z,7.60
2022-09-20T23:01:07.614Z,7.50
2022-09-20T23:03:35.828Z,8.20
2022-09-20T23:06:04.124Z,8.05
2022-09-20T23:08:33.186Z,8.10
2022-09-20T23:11:03.686Z,8.00
2022-09-20T23:13:33.259Z,8.18
2022-09-20T23:16:00.988Z,8.15
2022-09-20T23:18:28.700Z,8.25
2022-09-20T23:21:00.337Z,7.22
2022-09-20T23:23:28.108Z,7.38
2022-09-20T23:25:56.137Z,7.53
2022-09-20T23:28:27.270Z,7.28
2022-09-20T23:31:04.528Z,7.20
2022-09-20T23:33:32.780Z,7.22
2022-09-20T23:36:00.801Z,7.60
2022-09-20T23:38:28.581Z,7.13
2022-09-20T23:40:56.472Z,7.78
2022-09-20T23:43:24.360Z,8.20
2022-09-20T23:45:52.099Z,8.27
2022-09-20T23:48:21.204Z,8.35
2022-09-20T23:50:48.965Z,8.10
2022-09-20T23:53:16.745Z,8.20
2022-09-20T23:55:44.477Z,7.93
2022-09-20T23:58:12.465Z,7.95
